Terminal Aerodrome Forecast
Issued by NWS Brownsville, TX

Home | Current Version | Previous Version | Text Only | Print | Product List | Glossary On
Versions: 1 2 3 4 5 6 7 8 9 10 11 12 13 14 15 16 17 18 19 20 21 22 23 24 25 26 27
000
FTUS44 KBRO 241740
TAFMFE
TAF
KMFE 241740Z 2418/2518 16012KT P6SM SKC
     FM250300 15011G17KT P6SM BKN050
     FM250600 15014G20KT P6SM OVC015 PROB30 2508/2512 5SM -TSRA
      BKN010CB
     FM251700 15021G27KT P6SM VCTS BKN030CB=

USA.gov is the U.S. government's official web portal to all federal, state and local government web resources and services.